メインページ
METAR-TAF:

METAR-TAF

空港 :

エルドラド国際空港

ボゴタ, コロンビア

緯度: 04-43N, 経度: 074-09W, 海抜: 2547m

現時点の気象観測

当レポートは54分前の14:00(UTC)に作成
北東の風 5kt
気温 16°C
湿度 59%
気圧 1029 hPa
視程10km以上
高度2500ftの雲はほとんどない

METAR: SKBO 121400Z 05005KT 9999 FEW025 16/08 Q1029 NOSIG

時間: 09:54 (14:54 UTC)

予報

当レポートは4時間24分前の10:30(UTC)に作成
予報は12日の 12時(UTC)から 13日の 12時(UTC)まで有効
東/北東の風 6kt
視程10km以上
高度2000ftの雲はほとんどない
12日の 14時(UTC)から 12日の 16時(UTC)まで徐々に
南東の風 12kt
高度2000ftの雲は散在している, 塔状積雲.
13日の 01時(UTC)から 13日の 03時(UTC)まで徐々に
東/北東の風 4kt
高度1700ftの雲は散在している
確率 40% :
13日の 08時(UTC)から 13日の 10時(UTC)まで一時的に
霧雨,

TAF: SKBO 121030Z 1212/1312 06006KT 9999 FEW020 BECMG 1214/1216 14012KT SCT020TCU BECMG 1301/1303 06004KT SCT017 PROB40 TEMPO 1308/1310 DZ TX21/1218Z TN09/1310Z

4,000以上の空港の気象観測と天気予報(METAR報とTAF報)

利用可能な観測所は地図上に黄色い丸と赤い丸で示す。

丸の上にカーソルを重ねると観測所名を参照できる。

次にクリックすると気象観測と天気予報を参照できる。

マップの切り替え:黒色「×」印の緑ボタンをクリックして拡大、「-」印の緑ボタンをクリックして縮小、緑色の三角印をクリックして隣りの地図に切り替え


METAR-TAF: